Time;durP1;ratioP1;P1;durP2;ratioP2;P2;SDS_P1;SDS_P2;PMS_P1;PMS_P2;Temp;Humidity;BMP_temperature;BMP_pressure;BME280_temperature;BME280_humidity;BME280_pressure;Samples;Min_cycle;Max_cycle;Signal;HPM_P1;HPM_P2
2023/04/23 00:01:13;;;;;;;116.22;54.80;;;;;;;8.56;100.00;100781.47;5047466;28;20029;-56
2023/04/23 00:03:41;;;;;;;125.80;56.70;;;;;;;8.57;100.00;100775.28;5049139;28;20029;-59
2023/04/23 00:06:09;;;;;;;120.28;55.80;;;;;;;8.61;100.00;100781.31;5047435;28;20045;-58
2023/04/23 00:08:34;;;;;;;113.65;55.10;;;;;;;8.58;100.00;100776.16;5031058;28;20076;-60
2023/04/23 00:11:00;;;;;;;113.18;54.33;;;;;;;8.56;100.00;100765.69;5048520;28;20178;-58
2023/04/23 00:13:26;;;;;;;120.75;54.95;;;;;;;8.58;100.00;100773.53;5048421;28;20025;-57
2023/04/23 00:15:51;;;;;;;120.07;55.55;;;;;;;8.59;100.00;100768.25;5048807;28;20086;-56
2023/04/23 00:18:17;;;;;;;132.15;58.58;;;;;;;8.61;100.00;100764.72;5029454;28;20029;-56
2023/04/23 00:20:42;;;;;;;126.20;58.25;;;;;;;8.68;100.00;100763.63;5048460;28;20021;-57
2023/04/23 00:23:08;;;;;;;127.72;56.70;;;;;;;8.74;100.00;100760.84;5029861;28;20025;-55
2023/04/23 00:25:33;;;;;;;120.18;56.03;;;;;;;8.80;100.00;100752.81;5048709;28;20067;-57
2023/04/23 00:27:58;;;;;;;126.10;56.85;;;;;;;8.82;100.00;100758.84;5047886;28;20108;-53
2023/04/23 00:30:24;;;;;;;118.93;55.17;;;;;;;8.82;100.00;100755.38;5047142;28;20065;-58
2023/04/23 00:32:49;;;;;;;126.93;57.38;;;;;;;8.85;100.00;100756.16;5048245;28;20051;-55
2023/04/23 00:35:15;;;;;;;130.60;57.20;;;;;;;8.84;100.00;100746.53;5048378;28;20120;-53
2023/04/23 00:37:40;;;;;;;122.15;56.95;;;;;;;8.87;100.00;100747.34;5047911;28;20029;-56
2023/04/23 00:40:06;;;;;;;126.20;59.17;;;;;;;8.90;100.00;100744.63;5048036;28;20029;-59
2023/04/23 00:42:32;;;;;;;122.15;58.20;;;;;;;9.01;100.00;100736.44;5048010;28;20028;-54
2023/04/23 00:44:58;;;;;;;119.32;56.05;;;;;;;9.03;100.00;100735.50;5046986;28;20056;-55
2023/04/23 00:47:24;;;;;;;122.82;58.00;;;;;;;9.00;100.00;100735.56;5030149;28;20025;-56
2023/04/23 00:49:50;;;;;;;107.97;55.55;;;;;;;8.96;100.00;100732.19;5031469;28;20053;-56
2023/04/23 00:52:16;;;;;;;103.32;53.25;;;;;;;8.92;100.00;100732.31;5027277;28;20086;-58
2023/04/23 00:54:41;;;;;;;109.93;54.85;;;;;;;8.89;100.00;100733.28;5027442;28;20520;-59
2023/04/23 00:57:06;;;;;;;114.50;56.10;;;;;;;8.78;100.00;100728.31;5027641;28;20037;-57
2023/04/23 00:59:32;;;;;;;114.60;56.75;;;;;;;8.78;100.00;100723.06;5032873;28;20040;-57
2023/04/23 01:01:58;;;;;;;117.85;55.78;;;;;;;8.78;100.00;100720.44;5030488;28;20383;-55
2023/04/23 01:04:26;;;;;;;123.63;56.88;;;;;;;8.88;100.00;100720.19;5029228;28;20460;-57
2023/04/23 01:06:52;;;;;;;122.22;58.22;;;;;;;8.94;100.00;100714.75;5046951;28;20025;-57
2023/04/23 01:09:17;;;;;;;126.38;59.95;;;;;;;8.96;100.00;100710.31;5029352;28;20120;-55
2023/04/23 01:11:43;;;;;;;120.90;58.55;;;;;;;8.90;100.00;100708.72;5046595;28;20519;-55
2023/04/23 01:14:09;;;;;;;123.28;58.28;;;;;;;9.01;100.00;100718.94;5039967;28;20029;-56
2023/04/23 01:16:37;;;;;;;117.57;55.50;;;;;;;9.06;100.00;100708.28;5042338;28;20037;-53
2023/04/23 01:19:04;;;;;;;117.32;56.13;;;;;;;9.09;100.00;100709.03;5026365;28;20025;-59
2023/04/23 01:21:31;;;;;;;109.10;55.08;;;;;;;9.11;100.00;100701.09;5029227;28;20045;-55
2023/04/23 01:23:56;;;;;;;107.07;53.30;;;;;;;9.08;100.00;100698.56;5011738;28;20030;-60
2023/04/23 01:26:22;;;;;;;112.75;54.40;;;;;;;9.11;100.00;100701.09;5027272;28;20022;-57
2023/04/23 01:28:48;;;;;;;116.05;55.47;;;;;;;9.08;100.00;100696.81;5027466;28;20044;-56
2023/04/23 01:31:13;;;;;;;107.50;52.58;;;;;;;9.12;100.00;100696.72;5029590;28;20406;-57
2023/04/23 01:33:39;;;;;;;108.78;53.28;;;;;;;9.05;100.00;100691.63;5047290;28;20574;-56
2023/04/23 01:36:05;;;;;;;107.78;52.78;;;;;;;9.17;100.00;100697.44;5044653;28;20029;-55
2023/04/23 01:38:32;;;;;;;99.25;50.58;;;;;;;9.18;100.00;100692.13;5030010;28;20033;-61
2023/04/23 01:40:57;;;;;;;97.88;50.92;;;;;;;9.18;100.00;100696.53;5046782;28;20025;-59
2023/04/23 01:43:23;;;;;;;101.78;52.63;;;;;;;9.14;100.00;100689.63;5044982;28;20032;-57
2023/04/23 01:45:48;;;;;;;103.85;52.78;;;;;;;9.17;100.00;100685.16;5029736;28;20021;-57
2023/04/23 01:48:14;;;;;;;97.13;50.90;;;;;;;9.16;100.00;100688.69;5045616;28;20116;-58
2023/04/23 01:50:40;;;;;;;102.53;52.92;;;;;;;9.19;100.00;100688.59;5046764;28;20104;-58
2023/04/23 01:53:05;;;;;;;103.70;53.40;;;;;;;9.20;100.00;100678.94;5029750;28;20033;-59
2023/04/23 01:55:31;;;;;;;106.38;51.40;;;;;;;9.15;100.00;100686.94;5046897;28;20082;-56
2023/04/23 01:57:57;;;;;;;100.57;52.00;;;;;;;9.15;100.00;100680.84;5028939;28;20032;-57
2023/04/23 02:00:22;;;;;;;98.35;52.83;;;;;;;9.16;100.00;100687.81;5045906;28;20033;-57
2023/04/23 02:02:47;;;;;;;91.50;50.03;;;;;;;9.20;100.00;100684.19;5046493;28;20108;-59
2023/04/23 02:05:17;;;;;;;96.38;49.28;;;;;;;9.25;100.00;100682.28;5045177;28;20029;-56
2023/04/23 02:07:42;;;;;;;;;;;;;;;9.20;100.00;100684.19;5046761;28;20082;-52
2023/04/23 02:10:08;;;;;;;85.78;46.03;;;;;;;9.16;100.00;100682.56;5027346;28;19913;-56
2023/04/23 02:12:38;;;;;;;92.18;46.65;;;;;;;9.13;100.00;100678.28;5027771;28;20452;-55
2023/04/23 02:15:03;;;;;;;;;;;;;;;9.13;100.00;100680.03;5025965;28;20457;-57
2023/04/23 02:17:28;;;;;;;81.18;43.00;;;;;;;9.13;100.00;100667.75;5035065;28;19970;-57
2023/04/23 02:19:56;;;;;;;85.25;46.03;;;;;;;9.15;100.00;100675.59;5046269;28;20481;-57
2023/04/23 02:22:24;;;;;;;83.93;46.15;;;;;;;9.15;100.00;100675.59;5044030;28;20033;-58
2023/04/23 02:24:50;;;;;;;78.85;44.60;;;;;;;9.10;100.00;100673.94;5028391;28;20033;-60
2023/04/23 02:27:15;;;;;;;81.38;45.38;;;;;;;9.03;100.00;100669.78;5025749;28;20024;-55
2023/04/23 02:29:41;;;;;;;80.38;43.38;;;;;;;9.12;100.00;100668.66;5028081;28;20740;-56
2023/04/23 02:32:06;;;;;;;80.85;44.28;;;;;;;9.17;100.00;100666.75;5026832;28;20033;-57
2023/04/23 02:34:32;;;;;;;78.05;43.95;;;;;;;9.16;100.00;100672.06;5026418;28;20025;-57
2023/04/23 02:36:57;;;;;;;79.38;44.28;;;;;;;9.05;100.00;100665.34;5040324;28;20029;-57
2023/04/23 02:39:23;;;;;;;75.47;41.70;;;;;;;9.16;100.00;100672.06;5046524;28;20029;-57
2023/04/23 02:41:48;;;;;;;78.43;42.92;;;;;;;9.22;100.00;100666.59;5045921;28;20028;-58
2023/04/23 02:44:13;;;;;;;71.63;40.28;;;;;;;9.25;100.00;100670.91;5030171;28;20388;-59
2023/04/23 02:46:39;;;;;;;71.57;40.60;;;;;;;9.26;100.00;100670.84;5025909;28;20516;-59
2023/04/23 02:49:05;;;;;;;68.50;39.95;;;;;;;9.26;100.00;100669.97;5031142;28;20032;-59
2023/04/23 02:51:31;;;;;;;65.22;38.40;;;;;;;9.28;100.00;100676.06;5046526;28;20052;-59
2023/04/23 02:53:56;;;;;;;67.47;38.05;;;;;;;9.21;100.00;100672.75;5028732;28;20049;-58
2023/04/23 02:56:22;;;;;;;59.38;36.05;;;;;;;9.27;100.00;100677.00;5028171;28;20563;-55
2023/04/23 02:58:47;;;;;;;58.15;34.42;;;;;;;9.24;100.00;100667.41;5024941;28;20036;-55
2023/04/23 03:01:13;;;;;;;52.47;33.75;;;;;;;9.21;100.00;100675.38;5031826;28;20067;-58
2023/04/23 03:03:38;;;;;;;62.67;35.75;;;;;;;9.16;100.00;100674.69;5045363;28;20095;-54
2023/04/23 03:06:05;;;;;;;57.97;34.63;;;;;;;9.16;100.00;100672.06;5025384;28;20556;-57
2023/04/23 03:08:31;;;;;;;56.30;33.05;;;;;;;9.16;100.00;100666.78;5025478;28;20039;-57
2023/04/23 03:10:56;;;;;;;51.17;32.88;;;;;;;9.18;100.00;100659.72;5020925;28;20124;-56
2023/04/23 03:13:21;;;;;;;52.67;32.70;;;;;;;9.19;100.00;100657.06;5024787;28;20105;-56
2023/04/23 03:15:47;;;;;;;49.45;30.98;;;;;;;9.18;100.00;100660.56;5024899;28;20029;-59
2023/04/23 03:18:12;;;;;;;51.33;32.35;;;;;;;9.15;100.00;100658.03;5024821;28;20029;-56
2023/04/23 03:20:38;;;;;;;55.20;32.40;;;;;;;9.15;100.00;100654.56;5023818;28;20041;-57
2023/04/23 03:23:05;;;;;;;53.78;31.98;;;;;;;9.14;100.00;100653.69;5025678;28;20116;-54
2023/04/23 03:25:31;;;;;;;54.78;34.88;;;;;;;9.15;100.00;100650.16;5024871;28;20039;-64
2023/04/23 03:27:57;;;;;;;52.47;33.33;;;;;;;9.15;100.00;100654.56;5025305;28;20112;-57
2023/04/23 03:30:22;;;;;;;57.88;32.65;;;;;;;9.22;100.00;100648.22;5017532;28;20101;-56
2023/04/23 03:32:49;;;;;;;50.50;32.63;;;;;;;9.19;100.00;100651.81;5006893;28;20034;-59
2023/04/23 03:35:15;;;;;;;50.10;31.92;;;;;;;9.28;100.00;100648.03;5010646;28;20025;-57
2023/04/23 03:37:40;;;;;;;47.20;31.60;;;;;;;9.31;100.00;100650.56;5025658;28;20039;-58
2023/04/23 03:40:08;;;;;;;48.97;31.30;;;;;;;9.39;100.00;100644.19;5022204;28;20018;-56
2023/04/23 03:42:33;;;;;;;50.47;32.03;;;;;;;9.40;100.00;100643.28;5020594;28;20033;-61
2023/04/23 03:44:59;;;;;;;54.33;32.92;;;;;;;9.44;100.00;100640.50;5024816;28;20030;-56
2023/04/23 03:47:25;;;;;;;49.45;31.02;;;;;;;9.47;100.00;100636.91;5022378;28;20034;-57
2023/04/23 03:49:51;;;;;;;48.85;30.75;;;;;;;9.55;100.00;100641.91;5005769;28;20053;-58
2023/04/23 03:52:16;;;;;;;45.35;28.90;;;;;;;9.60;100.00;100639.97;5009544;28;20453;-58
2023/04/23 03:54:41;;;;;;;43.47;28.33;;;;;;;9.59;100.00;100638.25;5018462;28;20048;-60
2023/04/23 03:57:08;;;;;;;43.58;29.67;;;;;;;9.57;100.00;100643.56;5019278;28;20030;-59
2023/04/23 03:59:33;;;;;;;48.08;29.50;;;;;;;9.59;100.00;100647.03;5022347;28;20022;-58
2023/04/23 04:01:58;;;;;;;44.50;29.85;;;;;;;9.66;100.00;100647.66;5028030;28;20483;-60
2023/04/23 04:04:24;;;;;;;43.33;28.65;;;;;;;9.59;100.00;100644.41;5028343;28;20025;-59
2023/04/23 04:06:49;;;;;;;44.00;27.77;;;;;;;9.65;100.00;100647.72;5028978;28;20112;-57
2023/04/23 04:09:16;;;;;;;41.42;28.17;;;;;;;9.65;100.00;100642.44;5028241;28;20067;-59
2023/04/23 04:11:41;;;;;;;40.78;28.85;;;;;;;9.66;100.00;100649.47;5036513;28;20056;-56
2023/04/23 04:14:06;;;;;;;43.55;29.42;;;;;;;9.67;100.00;100652.03;5028043;28;20021;-57
2023/04/23 04:16:32;;;;;;;45.45;30.85;;;;;;;9.60;100.00;100651.38;5037009;28;20036;-59
2023/04/23 04:18:57;;;;;;;43.17;28.80;;;;;;;9.68;100.00;100652.88;5047689;28;20021;-59
2023/04/23 04:21:22;;;;;;;40.53;28.05;;;;;;;9.73;100.00;100645.72;5028581;28;20028;-58
2023/04/23 04:23:48;;;;;;;37.45;26.90;;;;;;;9.73;100.00;100649.19;5043852;28;20056;-55
2023/04/23 04:26:14;;;;;;;42.22;28.15;;;;;;;9.74;100.00;100647.41;5048487;28;20029;-58
2023/04/23 04:28:39;;;;;;;41.90;28.50;;;;;;;9.72;100.00;100649.22;5047603;28;20413;-57
2023/04/23 04:31:05;;;;;;;41.38;28.75;;;;;;;9.77;100.00;100641.19;5048359;28;20029;-57
2023/04/23 04:33:31;;;;;;;42.55;27.90;;;;;;;9.69;100.00;100633.56;5048470;28;20033;-57
2023/04/23 04:35:58;;;;;;;37.97;26.63;;;;;;;9.66;100.00;100633.66;5024228;28;20033;-55
2023/04/23 04:38:23;;;;;;;41.45;28.20;;;;;;;9.67;100.00;100641.53;5036371;28;20033;-56
2023/04/23 04:40:49;;;;;;;41.50;28.17;;;;;;;9.64;100.00;100631.09;5048196;28;20031;-57
2023/04/23 04:43:15;;;;;;;40.38;28.60;;;;;;;9.70;100.00;100635.28;5046670;28;20029;-59
2023/04/23 04:45:41;;;;;;;44.28;29.20;;;;;;;9.65;100.00;100637.19;5047279;28;20032;-57
2023/04/23 04:48:06;;;;;;;43.03;27.88;;;;;;;9.59;100.00;100639.13;5029880;28;20017;-59
2023/04/23 04:50:32;;;;;;;38.80;26.80;;;;;;;9.64;100.00;100635.47;5045274;28;20029;-57
2023/04/23 04:52:57;;;;;;;41.53;27.60;;;;;;;9.56;100.00;100641.88;5047073;28;20515;-56
2023/04/23 04:55:22;;;;;;;42.40;29.08;;;;;;;9.55;100.00;100642.78;5037992;28;20105;-56
2023/04/23 04:57:48;;;;;;;41.50;29.10;;;;;;;9.52;100.00;100637.63;5027540;28;20400;-50
2023/04/23 05:00:21;;;;;;;41.47;28.77;;;;;;;9.58;100.00;100642.66;5026640;28;20376;-54
2023/04/23 05:02:47;;;;;;;44.95;29.08;;;;;;;9.47;100.00;100642.16;5027756;28;20033;-55
2023/04/23 05:05:13;;;;;;;38.08;27.77;;;;;;;9.46;100.00;100640.44;5009552;28;20455;-57
2023/04/23 05:07:38;;;;;;;39.67;27.88;;;;;;;9.45;100.00;100646.63;5034804;28;20025;-55
2023/04/23 05:10:04;;;;;;;40.10;27.08;;;;;;;9.55;100.00;100648.03;5035327;28;20116;-57
2023/04/23 05:12:30;;;;;;;41.70;28.42;;;;;;;9.51;100.00;100651.66;5047468;28;20600;-56
2023/04/23 05:14:55;;;;;;;44.78;28.13;;;;;;;9.55;100.00;100647.16;5047135;28;20051;-57
2023/04/23 05:17:20;;;;;;;43.45;28.60;;;;;;;9.71;100.00;100655.41;5046377;28;20029;-59
2023/04/23 05:19:46;;;;;;;43.08;28.75;;;;;;;9.75;100.00;100649.13;5047297;28;20025;-57
2023/04/23 05:22:11;;;;;;;41.92;25.73;;;;;;;9.89;100.00;100650.44;5046201;28;20032;-57
2023/04/23 05:24:36;;;;;;;40.67;26.77;;;;;;;9.89;100.00;100642.53;5047389;28;20053;-56
2023/04/23 05:27:01;;;;;;;38.05;26.08;;;;;;;9.94;100.00;100651.16;5046497;28;20021;-57
2023/04/23 05:29:27;;;;;;;38.80;25.75;;;;;;;9.96;100.00;100651.94;5046539;28;20058;-57
2023/04/23 05:31:53;;;;;;;38.38;26.23;;;;;;;9.84;100.00;100643.56;5047622;28;20032;-55
2023/04/23 05:34:18;;;;;;;38.58;25.17;;;;;;;9.81;100.00;100648.94;5029497;28;20032;-51
2023/04/23 05:36:43;;;;;;;36.38;25.92;;;;;;;9.80;100.00;100647.22;5046990;28;20560;-56
2023/04/23 05:39:09;;;;;;;38.90;26.05;;;;;;;9.68;100.00;100652.88;5046723;28;20478;-57
2023/04/23 05:41:34;;;;;;;44.67;27.90;;;;;;;9.76;100.00;100645.59;5043254;28;20025;-57
2023/04/23 05:43:59;;;;;;;38.72;25.98;;;;;;;9.77;100.00;100641.19;5027439;28;20036;-53
2023/04/23 05:46:25;;;;;;;39.90;26.23;;;;;;;9.81;100.00;100645.47;5032197;28;20104;-55
2023/04/23 05:48:50;;;;;;;39.30;27.33;;;;;;;9.84;100.00;100645.31;5018392;28;20106;-60
2023/04/23 05:51:16;;;;;;;38.88;26.00;;;;;;;9.91;100.00;100648.63;5044236;28;20025;-55
2023/04/23 05:53:41;;;;;;;41.10;26.25;;;;;;;9.95;100.00;100643.19;5029471;28;20467;-56
2023/04/23 05:56:07;;;;;;;39.45;26.50;;;;;;;9.98;100.00;100635.22;5046844;28;20064;-57
2023/04/23 05:58:32;;;;;;;38.42;25.85;;;;;;;10.05;100.00;100633.19;5045760;28;20049;-59
2023/04/23 06:00:57;;;;;;;34.75;24.20;;;;;;;10.16;100.00;100632.84;5047219;28;20170;-55
2023/04/23 06:03:23;;;;;;;35.03;25.13;;;;;;;10.08;100.00;100641.00;5047202;28;20021;-57
2023/04/23 06:05:48;;;;;;;36.08;24.95;;;;;;;10.19;100.00;100639.75;5027810;28;20476;-56
2023/04/23 06:08:14;;;;;;;37.05;24.80;;;;;;;10.26;100.00;100643.88;5046410;28;20040;-58
2023/04/23 06:10:39;;;;;;;34.65;23.65;;;;;;;10.34;100.00;100638.34;5047137;28;20044;-59
2023/04/23 06:13:04;;;;;;;34.35;24.27;;;;;;;10.39;100.00;100639.06;5032284;28;20573;-56
2023/04/23 06:15:31;;;;;;;35.55;23.45;;;;;;;10.47;100.00;100637.03;5044502;28;20033;-55
2023/04/23 06:17:56;;;;;;;33.50;22.35;;;;;;;10.66;100.00;100627.56;5037214;28;20163;-55
2023/04/23 06:20:22;;;;;;;29.70;22.23;;;;;;;10.71;100.00;100625.59;5026098;28;20116;-56
2023/04/23 06:22:47;;;;;;;29.70;21.60;;;;;;;10.78;100.00;100632.38;5026915;28;20108;-57
2023/04/23 06:25:12;;;;;;;33.03;22.20;;;;;;;10.89;100.00;100626.69;5044466;28;20025;-57
2023/04/23 06:27:38;;;;;;;28.27;20.75;;;;;;;10.95;100.00;100625.59;5036081;28;20029;-53
2023/04/23 06:30:04;;;;;;;27.58;21.15;;;;;;;10.96;100.00;100614.13;5030557;28;20037;-52
2023/04/23 06:32:29;;;;;;;28.90;19.50;;;;;;;11.17;100.00;100614.22;5041900;28;20024;-56
2023/04/23 06:34:54;;;;;;;26.58;18.77;;;;;;;11.16;100.00;100618.63;5046442;28;20017;-54
2023/04/23 06:37:20;;;;;;;25.40;18.77;;;;;;;11.32;100.00;100615.38;5031156;28;20060;-53
2023/04/23 06:39:45;;;;;;;28.15;18.80;;;;;;;11.44;100.00;100609.56;5025677;28;20381;-54
2023/04/23 06:42:10;;;;;;;26.05;18.05;;;;;;;11.45;100.00;100613.06;5033032;28;20107;-60
2023/04/23 06:44:36;;;;;;;23.38;17.52;;;;;;;11.56;100.00;100615.28;5036618;28;20037;-58
2023/04/23 06:47:01;;;;;;;22.02;16.75;;;;;;;11.65;100.00;100614.03;5034527;28;20091;-58
2023/04/23 06:49:26;;;;;;;21.48;15.57;;;;;;;11.82;100.00;100608.88;5032063;28;20045;-57
2023/04/23 06:51:52;;;;;;;23.30;16.35;;;;;;;11.90;100.00;100612.97;5032906;28;20044;-53
2023/04/23 06:54:17;;;;;;;21.67;15.23;;;;;;;12.03;100.00;100611.53;5031713;28;20396;-58
2023/04/23 06:56:42;;;;;;;20.10;14.18;;;;;;;12.19;100.00;100616.16;5023529;28;20032;-55
2023/04/23 06:59:08;;;;;;;18.75;13.77;;;;;;;12.32;100.00;100608.56;5017408;28;20108;-58
2023/04/23 07:01:34;;;;;;;19.70;13.02;;;;;;;12.41;100.00;100612.56;5037770;28;20467;-55
2023/04/23 07:03:59;;;;;;;21.77;12.82;;;;;;;12.48;100.00;100609.56;5044889;28;20025;-55
2023/04/23 07:06:26;;;;;;;18.05;12.23;;;;;;;12.58;100.00;100599.41;5038042;28;20112;-59
2023/04/23 07:08:52;;;;;;;19.50;12.32;;;;;;;12.69;100.00;100603.34;5023771;28;20420;-53
2023/04/23 07:11:17;;;;;;;15.65;10.50;;;;;;;12.75;100.00;100603.94;5026883;28;20125;-56
2023/04/23 07:13:42;;;;;;;20.02;10.98;;;;;;;12.84;100.00;100597.34;5035456;28;20092;-55
2023/04/23 07:16:07;;;;;;;18.52;11.38;;;;;;;12.89;100.00;100597.97;5009238;28;20029;-56
2023/04/23 07:18:33;;;;;;;17.40;11.38;;;;;;;12.96;100.00;100592.41;5033392;28;20033;-57
2023/04/23 07:20:58;;;;;;;16.65;10.57;;;;;;;13.02;100.00;100595.63;5043983;28;20052;-57
2023/04/23 07:23:24;;;;;;;16.63;10.63;;;;;;;12.99;100.00;100595.78;5042020;28;20025;-53
2023/04/23 07:25:49;;;;;;;17.55;9.07;;;;;;;13.07;100.00;100587.47;5025166;28;20026;-57
2023/04/23 07:28:14;;;;;;;15.88;9.18;;;;;;;13.11;100.00;100589.03;5023637;28;20028;-55
2023/04/23 07:30:40;;;;;;;14.27;8.32;;;;;;;13.25;100.00;100595.44;5023676;28;20121;-58
2023/04/23 07:33:05;;;;;;;19.77;8.95;;;;;;;13.31;100.00;100586.34;5029751;28;20032;-57
2023/04/23 07:35:30;;;;;;;16.67;9.55;;;;;;;13.49;100.00;100589.84;5038555;28;20020;-62
2023/04/23 07:37:56;;;;;;;22.83;9.02;;;;;;;13.58;100.00;100586.75;5049020;28;20125;-56
2023/04/23 07:40:22;;;;;;;12.60;7.90;;;;;;;13.57;100.00;100586.84;5047763;28;20029;-54
2023/04/23 07:42:47;;;;;;;14.93;8.15;;;;;;;13.59;100.00;100583.19;5036125;28;20064;-59
2023/04/23 07:45:13;;;;;;;15.68;7.85;;;;;;;13.75;100.00;100579.75;5010389;28;20041;-58
2023/04/23 07:47:38;;;;;;;15.55;7.45;;;;;;;13.82;100.00;100581.13;5033940;28;20036;-57
2023/04/23 07:50:04;;;;;;;12.85;7.07;;;;;;;13.98;100.00;100583.84;5047832;28;20029;-59
2023/04/23 07:52:30;;;;;;;15.05;6.72;;;;;;;13.99;100.00;100582.03;5035517;28;20032;-56
2023/04/23 07:54:55;;;;;;;13.40;6.90;;;;;;;13.74;100.00;100578.03;5046232;28;20031;-58
2023/04/23 07:57:20;;;;;;;15.98;7.13;;;;;;;13.66;100.00;100578.44;5046668;28;20029;-59
2023/04/23 07:59:46;;;;;;;11.32;6.43;;;;;;;13.75;100.00;100592.97;5046055;28;20399;-56
2023/04/23 08:02:11;;;;;;;12.10;6.60;;;;;;;13.70;100.00;100579.13;5034294;28;20370;-55
2023/04/23 08:04:36;;;;;;;13.65;6.72;;;;;;;13.87;100.00;100578.25;5036666;28;20091;-57
2023/04/23 08:07:02;;;;;;;15.15;6.43;;;;;;;13.90;100.00;100573.66;5026871;28;20392;-57
2023/04/23 08:09:27;;;;;;;14.18;6.35;;;;;;;13.93;100.00;100577.94;5028759;28;20095;-55
2023/04/23 08:11:54;;;;;;;16.88;7.07;;;;;;;13.98;100.00;100569.75;5026284;28;20056;-54
2023/04/23 08:14:19;;;;;;;14.68;7.10;;;;;;;14.02;100.00;100563.34;5037974;28;20060;-57
2023/04/23 08:16:44;;;;;;;15.57;6.70;;;;;;;13.94;100.00;100561.09;5035572;28;20068;-56
2023/04/23 08:19:10;;;;;;;17.52;6.68;;;;;;;13.89;100.00;100561.38;5037101;28;20045;-54
2023/04/23 08:21:36;;;;;;;11.73;6.32;;;;;;;13.90;100.00;100567.50;5037673;28;20056;-57
2023/04/23 08:24:01;;;;;;;13.65;6.22;;;;;;;14.11;100.00;100557.56;5041268;28;20199;-59
2023/04/23 08:26:27;;;;;;;9.85;5.35;;;;;;;14.25;100.00;100563.91;5030868;28;20017;-54
2023/04/23 08:28:52;;;;;;;12.75;5.93;;;;;;;14.36;100.00;100558.03;5036157;28;20018;-56
2023/04/23 08:31:18;;;;;;;13.38;6.22;;;;;;;14.34;100.00;100555.47;5031385;28;20202;-56
2023/04/23 08:33:43;;;;;;;13.90;6.40;;;;;;;14.20;100.00;100547.41;5039784;28;20049;-56
2023/04/23 08:36:09;;;;;;;11.48;5.65;;;;;;;14.36;100.00;100553.56;5031490;28;20113;-55
2023/04/23 08:38:34;;;;;;;13.07;5.78;;;;;;;14.50;100.00;100565.22;5035281;28;20049;-56
2023/04/23 08:41:00;;;;;;;12.50;5.70;;;;;;;14.66;100.00;100560.78;5037119;28;20052;-60
2023/04/23 08:44:10;;;;;;;11.93;5.90;;;;;;;14.80;100.00;100555.66;5036158;28;20103;-58
2023/04/23 08:46:36;;;;;;;12.90;6.03;;;;;;;14.71;100.00;100562.31;5029093;28;20029;-55
2023/04/23 08:49:02;;;;;;;10.57;4.95;;;;;;;14.67;100.00;100561.66;5025989;28;20404;-60
2023/04/23 08:51:29;;;;;;;11.88;5.55;;;;;;;14.89;100.00;100561.34;5032736;28;20020;-57
2023/04/23 08:53:57;;;;;;;10.35;5.15;;;;;;;15.07;100.00;100563.00;5027395;28;20096;-55
2023/04/23 08:56:23;;;;;;;13.43;5.07;;;;;;;15.04;100.00;100561.38;5036803;28;20069;-56
2023/04/23 08:58:49;;;;;;;11.25;5.00;;;;;;;15.13;100.00;100560.88;5033242;28;20111;-59
2023/04/23 09:01:16;;;;;;;8.10;4.63;;;;;;;15.38;100.00;100562.09;5029120;28;20030;-57
2023/04/23 09:03:41;;;;;;;10.77;4.00;;;;;;;15.53;100.00;100559.47;5028853;28;20017;-58
2023/04/23 09:06:07;;;;;;;11.02;3.92;;;;;;;15.70;100.00;100557.59;5040628;28;20017;-58
2023/04/23 09:08:32;;;;;;;12.20;4.63;;;;;;;15.98;100.00;100564.78;5022438;28;20032;-57
2023/04/23 09:11:00;;;;;;;6.95;4.05;;;;;;;16.19;100.00;100572.38;5044385;28;20059;-58
2023/04/23 09:13:25;;;;;;;14.85;4.00;;;;;;;16.58;100.00;100561.16;5018355;28;20116;-60
2023/04/23 09:15:50;;;;;;;9.52;4.05;;;;;;;16.56;100.00;100553.28;5036831;28;20032;-55
2023/04/23 09:18:16;;;;;;;13.27;4.00;;;;;;;16.61;100.00;100550.28;5035728;28;20037;-55
2023/04/23 09:20:43;;;;;;;8.30;4.13;;;;;;;16.84;100.00;100551.47;5031940;28;20093;-59
2023/04/23 09:23:08;;;;;;;16.05;5.30;;;;;;;16.91;100.00;100546.59;5031738;28;20021;-54
2023/04/23 09:25:35;;;;;;;8.35;3.80;;;;;;;17.21;100.00;100544.69;5031386;28;20029;-58
2023/04/23 09:28:00;;;;;;;8.90;3.60;;;;;;;16.99;99.72;100540.78;5031324;28;20384;-62
2023/04/23 09:30:26;;;;;;;14.00;4.07;;;;;;;17.00;98.16;100539.81;5034583;28;20036;-59
2023/04/23 09:32:51;;;;;;;8.63;3.65;;;;;;;16.96;98.39;100551.63;5035027;28;20521;-55
2023/04/23 09:35:21;;;;;;;10.90;3.42;;;;;;;16.99;97.13;100538.13;5037812;28;20442;-58
2023/04/23 09:37:51;;;;;;;9.40;3.45;;;;;;;16.84;98.92;100554.13;5034506;28;20466;-56
2023/04/23 09:40:18;;;;;;;9.93;4.13;;;;;;;16.67;99.73;100549.91;5015450;28;20025;-54
2023/04/23 09:42:54;;;;;;;12.25;4.45;;;;;;;16.58;100.00;100548.69;5037238;28;20483;-60
2023/04/23 09:45:20;;;;;;;13.88;4.57;;;;;;;16.60;100.00;100540.59;5037303;28;20163;-57
2023/04/23 09:47:50;;;;;;;13.50;4.72;;;;;;;16.67;100.00;100548.09;5039792;28;20464;-53
2023/04/23 09:50:16;;;;;;;10.73;4.32;;;;;;;16.65;100.00;100535.88;5032719;28;20022;-57
2023/04/23 09:52:42;;;;;;;11.90;5.05;;;;;;;16.59;100.00;100541.56;5036239;28;20091;-58
2023/04/23 09:55:07;;;;;;;12.15;4.95;;;;;;;16.91;99.80;100531.50;5010498;28;20037;-54
2023/04/23 09:57:43;;;;;;;13.57;4.82;;;;;;;17.17;98.37;100538.72;5029621;28;20139;-58
2023/04/23 10:00:14;;;;;;;8.50;3.85;;;;;;;17.36;97.46;100529.50;5033155;28;20029;-53
2023/04/23 10:02:45;;;;;;;16.40;4.93;;;;;;;17.58;96.87;100534.22;5034367;28;20059;-57
2023/04/23 10:05:18;;;;;;;16.98;5.32;;;;;;;17.58;97.19;100520.88;5038570;28;20025;-52
2023/04/23 10:07:45;;;;;;;8.43;3.85;;;;;;;17.43;95.99;100523.66;5035794;28;20036;-56
2023/04/23 10:10:11;;;;;;;12.68;4.00;;;;;;;17.38;94.29;100515.13;5038438;28;20516;-57
2023/04/23 10:12:36;;;;;;;11.45;3.88;;;;;;;17.30;95.56;100520.13;5032150;28;20368;-56
2023/04/23 10:15:04;;;;;;;10.75;3.63;;;;;;;17.59;94.42;100524.41;5013244;28;20021;-56
2023/04/23 10:17:29;;;;;;;11.65;4.43;;;;;;;17.81;94.44;100518.44;5031420;28;20483;-60
2023/04/23 10:19:55;;;;;;;10.48;3.92;;;;;;;17.53;95.79;100521.22;5017403;28;20124;-58
2023/04/23 10:22:21;;;;;;;10.73;3.80;;;;;;;17.83;91.26;100516.53;5011235;28;20132;-58
2023/04/23 10:24:54;;;;;;;11.43;3.70;;;;;;;17.90;91.47;100511.63;5020220;28;20078;-58
2023/04/23 10:27:21;;;;;;;11.13;3.53;;;;;;;18.09;92.17;100502.34;5030424;28;20033;-62
2023/04/23 10:29:47;;;;;;;13.27;3.28;;;;;;;18.21;91.42;100508.63;5033040;28;20472;-56
2023/04/23 10:32:13;;;;;;;9.07;2.92;;;;;;;18.24;90.24;100497.75;5033085;28;20047;-60
2023/04/23 10:34:40;;;;;;;9.73;3.10;;;;;;;18.26;89.45;100499.34;5023437;28;20049;-59
2023/04/23 10:37:07;;;;;;;12.90;2.50;;;;;;;18.22;89.85;100495.19;5015880;28;20100;-57
2023/04/23 10:39:33;;;;;;;7.95;2.67;;;;;;;18.36;87.85;100491.50;5030591;28;20045;-57
2023/04/23 10:42:00;;;;;;;8.68;2.58;;;;;;;18.44;89.12;100490.97;5023911;28;20447;-59
2023/04/23 10:44:36;;;;;;;9.82;2.70;;;;;;;18.68;86.13;100482.97;5023893;28;20310;-56
2023/04/23 10:47:02;;;;;;;9.63;2.30;;;;;;;18.63;83.40;100482.44;5040914;28;20082;-62
2023/04/23 10:49:32;;;;;;;8.40;2.25;;;;;;;18.78;82.11;100479.63;5035417;28;20018;-57
2023/04/23 10:52:03;;;;;;;4.60;1.95;;;;;;;19.08;82.02;100470.28;5025864;28;20020;-59
2023/04/23 10:54:32;;;;;;;9.43;2.20;;;;;;;19.36;80.32;100472.66;5038002;28;20461;-54
2023/04/23 10:56:58;;;;;;;;;;;;;;;19.38;79.55;100463.56;5029667;28;20129;-55
2023/04/23 10:59:23;;;;;;;7.28;2.10;;;;;;;19.24;81.11;100466.44;5027363;28;20406;-57
2023/04/23 11:01:49;;;;;;;4.05;1.77;;;;;;;19.30;79.82;100452.63;5008211;28;20017;-55
2023/04/23 11:04:24;;;;;;;7.13;2.03;;;;;;;19.05;80.89;100457.13;5029688;28;20052;-55